Time;durP1;ratioP1;P1;durP2;ratioP2;P2;SDS_P1;SDS_P2;PMS_P1;PMS_P2;Temp;Humidity;BMP_temperature;BMP_pressure;BME280_temperature;BME280_humidity;BME280_pressure;Samples;Min_cycle;Max_cycle;Signal;HPM_P1;HPM_P2
2021/11/26 00:04:40;;;;;;;59.50;29.00;;;;;;;4.23;93.65;99069.13;714227;1200;114969;-75
2021/11/26 00:19:42;;;;;;;55.40;27.73;;;;;;;4.28;93.18;99065.20;713886;1181;113829;-75
2021/11/26 00:34:45;;;;;;;216.70;70.13;;;;;;;4.24;94.30;99063.80;713749;1200;113833;-75
2021/11/26 00:49:48;;;;;;;58.33;26.03;;;;;;;4.30;94.25;99049.49;713822;1202;114158;-76
2021/11/26 01:04:51;;;;;;;172.83;66.23;;;;;;;4.29;94.76;99047.87;713627;1177;113975;-77
2021/11/26 01:19:53;;;;;;;70.55;31.55;;;;;;;4.24;95.69;99024.86;713755;1180;113869;-75
2021/11/26 01:34:56;;;;;;;66.77;29.63;;;;;;;4.22;97.69;99003.38;713750;1204;114620;-74
2021/11/26 01:49:58;;;;;;;147.85;53.63;;;;;;;4.38;98.56;99018.55;713666;1200;114217;-75
2021/11/26 02:05:00;;;;;;;118.60;49.58;;;;;;;4.46;97.91;99036.91;713643;1205;115214;-75
2021/11/26 02:20:14;;;;;;;64.27;29.53;;;;;;;4.34;99.06;99024.92;713921;1190;114049;-76
2021/11/26 02:35:17;;;;;;;61.20;26.38;;;;;;;4.46;100.00;99002.31;713821;1176;113703;-76
2021/11/26 02:50:21;;;;;;;85.70;34.23;;;;;;;4.56;99.29;98973.81;713844;1201;114226;-76
2021/11/26 03:05:24;;;;;;;126.07;46.53;;;;;;;4.55;100.00;98959.17;713857;1200;114677;-76
2021/11/26 03:20:28;;;;;;;78.40;32.20;;;;;;;4.57;99.86;98976.28;713726;1199;114204;-76
2021/11/26 03:35:30;;;;;;;66.35;30.15;;;;;;;4.56;99.93;98984.20;713878;1205;113882;-77
2021/11/26 03:50:33;;;;;;;70.40;31.55;;;;;;;4.67;100.00;98981.51;713731;1176;113736;-75
2021/11/26 04:05:35;;;;;;;59.35;27.30;;;;;;;4.66;100.00;98977.29;713879;1174;115871;-75
2021/11/26 04:20:42;;;;;;;63.58;26.68;;;;;;;4.57;100.00;98959.88;713914;1203;114447;-76
2021/11/26 04:35:50;;;;;;;68.60;32.35;;;;;;;4.42;100.00;98949.83;713938;1176;114535;-76
2021/11/26 04:50:53;;;;;;;65.60;28.35;;;;;;;4.42;100.00;98959.38;713731;1176;114546;-76
2021/11/26 05:05:55;;;;;;;62.35;26.43;;;;;;;4.49;100.00;98957.92;713997;1178;114789;-76
2021/11/26 05:20:57;;;;;;;64.70;28.65;;;;;;;4.45;100.00;98964.33;714787;1200;114068;-75
2021/11/26 05:36:00;;;;;;;64.55;28.45;;;;;;;4.55;100.00;98959.98;714934;1177;114002;-75
2021/11/26 05:51:02;;;;;;;66.75;28.73;;;;;;;4.63;100.00;98946.36;714734;1200;116849;-75
2021/11/26 06:06:05;;;;;;;61.15;26.80;;;;;;;4.62;100.00;98948.14;714742;1199;114108;-75
2021/11/26 06:21:07;;;;;;;63.85;27.90;;;;;;;4.58;100.00;98949.36;713948;1203;114927;-74
2021/11/26 06:36:10;;;;;;;62.37;28.33;;;;;;;4.66;100.00;98961.70;713863;1177;113495;-81
2021/11/26 06:51:12;;;;;;;66.53;31.05;;;;;;;4.63;100.00;98972.33;714227;1200;114792;-81
2021/11/26 07:06:15;;;;;;;80.57;44.70;;;;;;;4.57;100.00;98957.28;715035;1185;113914;-81
2021/11/26 07:21:18;;;;;;;65.13;27.97;;;;;;;4.54;100.00;98944.53;714255;1201;114884;-81
2021/11/26 07:36:21;;;;;;;55.48;25.03;;;;;;;4.59;100.00;98942.38;714123;1200;114793;-75
2021/11/26 07:51:24;;;;;;;59.90;25.25;;;;;;;4.62;100.00;98942.14;715334;1202;115896;-75
2021/11/26 08:06:27;;;;;;;56.15;27.20;;;;;;;4.75;100.00;98949.69;714600;1200;113980;-75
2021/11/26 08:21:29;;;;;;;62.45;27.78;;;;;;;5.45;100.00;98937.58;714001;1199;114811;-76
2021/11/26 08:36:33;;;;;;;468.97;215.70;;;;;;;5.67;100.00;98935.66;716014;1205;114907;-88
2021/11/26 08:51:39;;;;;;;60.33;29.00;;;;;;;6.40;100.00;98945.63;718692;1202;115351;-74
2021/11/26 09:06:42;;;;;;;47.78;24.95;;;;;;;6.81;100.00;98948.77;715174;1200;115143;-74
2021/11/26 09:21:46;;;;;;;48.20;23.00;;;;;;;6.88;98.47;98962.05;714907;1200;114891;-76
2021/11/26 09:36:49;;;;;;;63.75;28.08;;;;;;;6.70;98.31;98959.38;714991;1200;114375;-74
2021/11/26 09:51:52;;;;;;;47.38;22.65;;;;;;;6.28;97.20;98949.34;715353;1200;114806;-74
2021/11/26 10:07:01;;;;;;;57.28;27.13;;;;;;;6.80;96.88;98921.06;715374;1200;114268;-75
2021/11/26 10:22:13;;;;;;;45.08;23.40;;;;;;;7.66;95.38;98904.17;714775;1202;114880;-74
2021/11/26 10:37:23;;;;;;;48.73;24.23;;;;;;;8.22;92.15;98908.34;717946;1200;115254;-75
2021/11/26 11:08:03;;;;;;;38.45;19.83;;;;;;;6.29;89.27;98865.84;713767;1178;113812;-74
2021/11/26 11:23:08;;;;;;;44.80;23.28;;;;;;;6.49;89.97;98844.94;713820;1204;113711;-75
2021/11/26 11:38:11;;;;;;;50.65;22.33;;;;;;;6.63;90.30;98854.08;714238;1200;113835;-74
2021/11/26 11:53:40;;;;;;;40.45;20.55;;;;;;;6.40;89.37;98844.03;713814;1178;114056;-75
2021/11/26 12:08:46;;;;;;;40.03;19.47;;;;;;;6.69;89.94;98837.87;713966;1200;114007;-75
2021/11/26 12:39:22;;;;;;;40.20;21.00;;;;;;;6.12;90.07;98798.90;717419;1177;113857;-87
2021/11/26 12:54:27;;;;;;;39.43;19.80;;;;;;;6.83;89.63;98774.78;715741;1177;113986;-76
2021/11/26 13:09:41;;;;;;;35.78;16.00;;;;;;;7.47;87.75;98759.03;714934;1176;113945;-79
2021/11/26 13:24:50;;;;;;;47.30;19.80;;;;;;;7.35;85.88;98749.83;714907;1200;114499;-80
2021/11/26 13:39:58;;;;;;;79.83;44.08;;;;;;;6.47;86.69;98755.70;714820;1203;113842;-74
2021/11/26 13:55:01;;;;;;;44.45;23.83;;;;;;;6.15;87.49;98738.74;715696;1185;114451;-76
2021/11/26 14:10:08;;;;;;;233.40;60.83;;;;;;;5.94;88.38;98734.54;715111;1200;114411;-74
2021/11/26 14:25:13;;;;;;;121.30;44.50;;;;;;;5.47;89.89;98734.55;715266;1200;114016;-75
2021/11/26 14:40:18;;;;;;;328.53;108.40;;;;;;;5.19;89.61;98712.83;715353;1199;114268;-78
2021/11/26 14:55:21;;;;;;;690.83;258.37;;;;;;;4.81;91.20;98695.34;715179;1177;115012;-75
2021/11/26 15:10:24;;;;;;;350.40;134.40;;;;;;;4.41;91.26;98713.63;715067;1202;115634;-83
2021/11/26 15:25:27;;;;;;;235.50;81.90;;;;;;;4.25;93.19;98693.38;715063;1206;114190;-82
2021/11/26 15:40:30;;;;;;;326.10;101.28;;;;;;;4.06;94.43;98673.41;714922;1177;113987;-83
2021/11/26 15:55:34;;;;;;;384.63;139.10;;;;;;;4.12;93.91;98670.28;715448;1200;114775;-83
2021/11/26 16:10:36;;;;;;;467.23;161.70;;;;;;;4.10;94.14;98660.02;714929;1203;114061;-82
2021/11/26 16:25:39;;;;;;;517.03;156.20;;;;;;;4.13;96.11;98645.95;719848;1200;114176;-95
2021/11/26 16:40:41;;;;;;;367.10;121.40;;;;;;;4.04;96.24;98650.19;728900;1165;113929;-79
2021/11/26 16:55:45;;;;;;;345.13;112.33;;;;;;;4.11;97.68;98633.11;715409;1199;115128;-81
2021/11/26 17:10:47;;;;;;;352.95;105.35;;;;;;;4.10;97.36;98621.08;715643;1199;115304;-82
2021/11/26 17:25:50;;;;;;;306.90;111.80;;;;;;;4.06;97.66;98601.55;715474;1200;114204;-78
2021/11/26 17:40:53;;;;;;;222.53;78.87;;;;;;;4.18;97.88;98578.08;715202;1178;113584;-75
2021/11/26 17:55:56;;;;;;;323.13;110.18;;;;;;;4.14;98.42;98551.56;715335;1199;114778;-84
2021/11/26 18:11:08;;;;;;;321.37;118.93;;;;;;;4.07;99.26;98538.31;714954;1200;115748;-84
2021/11/26 18:26:12;;;;;;;202.20;75.40;;;;;;;4.10;99.72;98513.87;715079;1176;114255;-82
2021/11/26 18:41:17;;;;;;;160.25;64.93;;;;;;;4.13;100.00;98493.66;715255;1202;114754;-80
2021/11/26 18:56:21;;;;;;;280.45;98.13;;;;;;;4.19;100.00;98486.28;715232;1199;115425;-82
2021/11/26 19:11:23;;;;;;;154.98;59.25;;;;;;;4.35;100.00;98478.73;714974;1176;114291;-83
2021/11/26 19:26:26;;;;;;;401.38;130.90;;;;;;;4.37;100.00;98476.83;715879;1199;115468;-82
2021/11/26 19:41:28;;;;;;;463.50;168.18;;;;;;;4.37;100.00;98453.45;714826;1178;114340;-78
2021/11/26 19:56:32;;;;;;;205.43;81.95;;;;;;;4.46;100.00;98450.02;714830;1177;114303;-82
2021/11/26 20:11:37;;;;;;;175.43;60.33;;;;;;;4.43;100.00;98452.06;715083;1177;113394;-83
2021/11/26 20:26:40;;;;;;;116.00;46.73;;;;;;;4.57;100.00;98440.42;715165;1203;114335;-87
2021/11/26 20:41:43;;;;;;;171.98;61.53;;;;;;;4.65;100.00;98424.94;714263;1200;114357;-86
2021/11/26 20:56:48;;;;;;;220.05;79.63;;;;;;;4.71;100.00;98419.19;714078;1199;114802;-88
2021/11/26 21:11:53;;;;;;;240.15;81.73;;;;;;;4.73;100.00;98414.64;713935;1199;114436;-87
2021/11/26 21:26:56;;;;;;;188.13;66.43;;;;;;;4.71;100.00;98406.20;714110;1199;114697;-89
2021/11/26 21:41:58;;;;;;;150.20;55.18;;;;;;;4.60;100.00;98388.19;713984;1175;114405;-89
2021/11/26 21:57:00;;;;;;;151.10;50.90;;;;;;;4.47;100.00;98373.77;714031;1177;114002;-89
2021/11/26 22:12:07;;;;;;;121.45;43.58;;;;;;;4.35;100.00;98350.70;713983;1205;114692;-89
2021/11/26 22:27:09;;;;;;;101.35;38.18;;;;;;;4.08;100.00;98331.52;714011;1177;114154;-87
2021/11/26 22:42:12;;;;;;;99.75;39.60;;;;;;;4.07;100.00;98312.55;713828;1205;114171;-88
2021/11/26 22:57:14;;;;;;;121.87;43.13;;;;;;;4.11;100.00;98282.75;714060;1175;113885;-87
2021/11/26 23:12:16;;;;;;;107.00;40.30;;;;;;;4.23;100.00;98267.81;713938;1199;114233;-87
2021/11/26 23:27:19;;;;;;;120.63;45.90;;;;;;;4.23;100.00;98238.45;714233;1176;114628;-88
2021/11/26 23:42:21;;;;;;;104.00;38.53;;;;;;;4.14;100.00;98224.55;714215;1200;114108;-87
2021/11/26 23:57:23;;;;;;;83.55;30.05;;;;;;;4.16;100.00;98205.28;714293;1177;114500;-86
